sensor_id;sensor_type;location;lat;lon;timestamp;temperature;humidity
9414;DHT22;4746;35.664;139.738;2022-10-16T00:01:41;21.60;99.90
9414;DHT22;4746;35.664;139.738;2022-10-16T00:04:09;21.70;99.90
9414;DHT22;4746;35.664;139.738;2022-10-16T00:06:37;21.80;99.90
9414;DHT22;4746;35.664;139.738;2022-10-16T00:09:05;21.90;99.90
9414;DHT22;4746;35.664;139.738;2022-10-16T00:11:37;22.00;99.90
9414;DHT22;4746;35.664;139.738;2022-10-16T00:14:13;22.00;99.90
9414;DHT22;4746;35.664;139.738;2022-10-16T00:16:42;22.10;99.90
9414;DHT22;4746;35.664;139.738;2022-10-16T00:19:11;22.20;99.90
9414;DHT22;4746;35.664;139.738;2022-10-16T00:21:38;22.20;99.90
9414;DHT22;4746;35.664;139.738;2022-10-16T00:24:08;22.40;99.90
9414;DHT22;4746;35.664;139.738;2022-10-16T00:26:37;22.40;99.90
9414;DHT22;4746;35.664;139.738;2022-10-16T00:29:06;22.40;99.90
9414;DHT22;4746;35.664;139.738;2022-10-16T00:31:35;22.50;99.90
9414;DHT22;4746;35.664;139.738;2022-10-16T00:34:02;22.50;99.90
9414;DHT22;4746;35.664;139.738;2022-10-16T00:36:30;22.60;99.90
9414;DHT22;4746;35.664;139.738;2022-10-16T00:38:58;22.70;99.90
9414;DHT22;4746;35.664;139.738;2022-10-16T00:41:27;22.70;99.90
9414;DHT22;4746;35.664;139.738;2022-10-16T00:43:57;22.70;99.90
9414;DHT22;4746;35.664;139.738;2022-10-16T00:46:38;22.70;99.90
9414;DHT22;4746;35.664;139.738;2022-10-16T00:49:15;22.70;99.90
9414;DHT22;4746;35.664;139.738;2022-10-16T00:51:47;22.80;99.90
9414;DHT22;4746;35.664;139.738;2022-10-16T00:54:28;22.90;99.90
9414;DHT22;4746;35.664;139.738;2022-10-16T00:57:00;22.90;99.90
9414;DHT22;4746;35.664;139.738;2022-10-16T00:59:33;23.00;99.90
9414;DHT22;4746;35.664;139.738;2022-10-16T01:02:05;23.00;99.90
9414;DHT22;4746;35.664;139.738;2022-10-16T01:04:38;23.00;99.90
9414;DHT22;4746;35.664;139.738;2022-10-16T01:18:52;23.60;99.90
9414;DHT22;4746;35.664;139.738;2022-10-16T01:21:29;23.60;99.90
9414;DHT22;4746;35.664;139.738;2022-10-16T01:29:54;23.70;99.90
9414;DHT22;4746;35.664;139.738;2022-10-16T01:35:22;23.80;99.90
9414;DHT22;4746;35.664;139.738;2022-10-16T01:37:58;23.80;99.90
9414;DHT22;4746;35.664;139.738;2022-10-16T01:40:31;23.70;99.90
9414;DHT22;4746;35.664;139.738;2022-10-16T01:43:31;23.70;99.90
9414;DHT22;4746;35.664;139.738;2022-10-16T01:46:03;23.70;99.90
9414;DHT22;4746;35.664;139.738;2022-10-16T01:48:33;23.80;99.90
9414;DHT22;4746;35.664;139.738;2022-10-16T01:51:11;23.80;99.90
9414;DHT22;4746;35.664;139.738;2022-10-16T01:53:43;23.80;99.90
9414;DHT22;4746;35.664;139.738;2022-10-16T01:56:18;23.80;99.90
9414;DHT22;4746;35.664;139.738;2022-10-16T01:58:55;23.80;99.90
9414;DHT22;4746;35.664;139.738;2022-10-16T02:01:34;23.90;99.90
9414;DHT22;4746;35.664;139.738;2022-10-16T02:04:15;23.90;99.90
9414;DHT22;4746;35.664;139.738;2022-10-16T02:06:49;23.90;99.90
9414;DHT22;4746;35.664;139.738;2022-10-16T02:09:17;24.00;99.90
9414;DHT22;4746;35.664;139.738;2022-10-16T02:11:44;24.00;99.90
9414;DHT22;4746;35.664;139.738;2022-10-16T02:14:12;24.10;99.90
9414;DHT22;4746;35.664;139.738;2022-10-16T02:16:43;24.10;99.90
9414;DHT22;4746;35.664;139.738;2022-10-16T02:19:13;24.20;99.90
9414;DHT22;4746;35.664;139.738;2022-10-16T02:22:02;24.30;99.90
9414;DHT22;4746;35.664;139.738;2022-10-16T02:24:50;24.30;99.90
9414;DHT22;4746;35.664;139.738;2022-10-16T02:27:38;24.50;99.90
9414;DHT22;4746;35.664;139.738;2022-10-16T02:30:21;24.50;99.90
9414;DHT22;4746;35.664;139.738;2022-10-16T02:32:53;24.50;99.90
9414;DHT22;4746;35.664;139.738;2022-10-16T02:35:25;24.50;99.90
9414;DHT22;4746;35.664;139.738;2022-10-16T02:37:55;24.50;99.90
9414;DHT22;4746;35.664;139.738;2022-10-16T02:40:24;24.60;99.90
9414;DHT22;4746;35.664;139.738;2022-10-16T02:42:54;24.70;99.90
9414;DHT22;4746;35.664;139.738;2022-10-16T02:45:23;24.80;99.90
9414;DHT22;4746;35.664;139.738;2022-10-16T02:47:51;24.90;99.90
9414;DHT22;4746;35.664;139.738;2022-10-16T02:50:19;25.00;99.90
9414;DHT22;4746;35.664;139.738;2022-10-16T02:52:46;25.10;99.90
9414;DHT22;4746;35.664;139.738;2022-10-16T02:55:14;25.20;99.90
9414;DHT22;4746;35.664;139.738;2022-10-16T02:57:42;25.40;99.90
9414;DHT22;4746;35.664;139.738;2022-10-16T03:00:12;25.60;99.90
9414;DHT22;4746;35.664;139.738;2022-10-16T03:02:41;25.90;99.90
9414;DHT22;4746;35.664;139.738;2022-10-16T03:05:09;26.10;99.90
9414;DHT22;4746;35.664;139.738;2022-10-16T03:07:37;26.20;99.90
9414;DHT22;4746;35.664;139.738;2022-10-16T03:10:05;26.30;99.90
9414;DHT22;4746;35.664;139.738;2022-10-16T03:12:33;26.40;99.90
9414;DHT22;4746;35.664;139.738;2022-10-16T03:15:01;26.60;99.90
9414;DHT22;4746;35.664;139.738;2022-10-16T03:17:29;26.70;99.90
9414;DHT22;4746;35.664;139.738;2022-10-16T03:19:58;26.70;99.90
9414;DHT22;4746;35.664;139.738;2022-10-16T03:22:25;26.60;99.90
9414;DHT22;4746;35.664;139.738;2022-10-16T03:24:53;26.70;99.90
9414;DHT22;4746;35.664;139.738;2022-10-16T03:27:20;26.80;99.90
9414;DHT22;4746;35.664;139.738;2022-10-16T03:29:48;26.90;99.90
9414;DHT22;4746;35.664;139.738;2022-10-16T03:32:15;27.00;99.90
9414;DHT22;4746;35.664;139.738;2022-10-16T03:34:46;27.00;99.90
9414;DHT22;4746;35.664;139.738;2022-10-16T03:37:13;27.00;99.90
9414;DHT22;4746;35.664;139.738;2022-10-16T03:39:41;27.10;99.90
9414;DHT22;4746;35.664;139.738;2022-10-16T03:42:08;27.20;99.90
9414;DHT22;4746;35.664;139.738;2022-10-16T03:44:36;27.30;99.90
9414;DHT22;4746;35.664;139.738;2022-10-16T03:47:03;27.50;99.90
9414;DHT22;4746;35.664;139.738;2022-10-16T03:49:30;27.80;99.90
9414;DHT22;4746;35.664;139.738;2022-10-16T03:51:58;28.10;99.90
9414;DHT22;4746;35.664;139.738;2022-10-16T03:54:25;28.40;99.90
9414;DHT22;4746;35.664;139.738;2022-10-16T03:56:53;28.90;99.90
9414;DHT22;4746;35.664;139.738;2022-10-16T03:59:20;29.20;99.90
9414;DHT22;4746;35.664;139.738;2022-10-16T04:01:48;29.60;99.90
9414;DHT22;4746;35.664;139.738;2022-10-16T04:04:15;29.80;99.90
9414;DHT22;4746;35.664;139.738;2022-10-16T04:06:42;30.20;99.90
9414;DHT22;4746;35.664;139.738;2022-10-16T04:09:10;30.50;99.90
9414;DHT22;4746;35.664;139.738;2022-10-16T04:11:37;30.80;99.90
9414;DHT22;4746;35.664;139.738;2022-10-16T04:14:05;30.90;99.90
9414;DHT22;4746;35.664;139.738;2022-10-16T04:16:32;31.10;99.90
9414;DHT22;4746;35.664;139.738;2022-10-16T04:19:00;31.30;99.90
9414;DHT22;4746;35.664;139.738;2022-10-16T04:21:27;31.40;99.90
9414;DHT22;4746;35.664;139.738;2022-10-16T04:23:55;31.70;99.90
9414;DHT22;4746;35.664;139.738;2022-10-16T04:26:22;32.00;99.90
9414;DHT22;4746;35.664;139.738;2022-10-16T04:28:50;32.20;99.90
9414;DHT22;4746;35.664;139.738;2022-10-16T04:31:17;32.60;99.90
9414;DHT22;4746;35.664;139.738;2022-10-16T04:33:45;32.80;99.90
9414;DHT22;4746;35.664;139.738;2022-10-16T04:36:12;32.80;99.90
9414;DHT22;4746;35.664;139.738;2022-10-16T04:38:40;32.40;99.90
9414;DHT22;4746;35.664;139.738;2022-10-16T04:41:08;31.90;99.90
9414;DHT22;4746;35.664;139.738;2022-10-16T04:43:35;31.60;99.90
9414;DHT22;4746;35.664;139.738;2022-10-16T04:46:03;31.30;99.90
9414;DHT22;4746;35.664;139.738;2022-10-16T04:48:31;31.10;99.90
9414;DHT22;4746;35.664;139.738;2022-10-16T04:51:00;30.80;99.90
9414;DHT22;4746;35.664;139.738;2022-10-16T04:53:27;30.50;99.90
9414;DHT22;4746;35.664;139.738;2022-10-16T04:55:55;30.00;99.90
9414;DHT22;4746;35.664;139.738;2022-10-16T04:58:24;29.70;99.90
9414;DHT22;4746;35.664;139.738;2022-10-16T05:00:52;29.40;99.90
9414;DHT22;4746;35.664;139.738;2022-10-16T05:03:19;29.10;99.90
9414;DHT22;4746;35.664;139.738;2022-10-16T05:05:47;28.80;99.90
9414;DHT22;4746;35.664;139.738;2022-10-16T05:08:15;28.70;99.90
9414;DHT22;4746;35.664;139.738;2022-10-16T05:10:44;28.50;99.90
9414;DHT22;4746;35.664;139.738;2022-10-16T05:13:12;28.40;99.90
9414;DHT22;4746;35.664;139.738;2022-10-16T05:15:40;28.30;99.90
9414;DHT22;4746;35.664;139.738;2022-10-16T05:18:13;28.20;99.90
9414;DHT22;4746;35.664;139.738;2022-10-16T05:20:41;28.10;99.90
9414;DHT22;4746;35.664;139.738;2022-10-16T05:23:09;27.90;99.90
9414;DHT22;4746;35.664;139.738;2022-10-16T05:25:38;27.70;99.90
9414;DHT22;4746;35.664;139.738;2022-10-16T05:28:05;27.60;99.90
9414;DHT22;4746;35.664;139.738;2022-10-16T05:30:33;27.40;99.90
9414;DHT22;4746;35.664;139.738;2022-10-16T05:33:03;27.30;99.90
9414;DHT22;4746;35.664;139.738;2022-10-16T05:35:31;27.10;99.90
9414;DHT22;4746;35.664;139.738;2022-10-16T05:38:00;26.90;99.90
9414;DHT22;4746;35.664;139.738;2022-10-16T05:40:27;26.80;99.90
9414;DHT22;4746;35.664;139.738;2022-10-16T05:42:55;26.60;99.90
9414;DHT22;4746;35.664;139.738;2022-10-16T05:45:23;26.50;99.90
9414;DHT22;4746;35.664;139.738;2022-10-16T05:47:50;26.30;99.90
9414;DHT22;4746;35.664;139.738;2022-10-16T05:50:18;26.20;99.90
9414;DHT22;4746;35.664;139.738;2022-10-16T05:52:45;26.10;99.90
9414;DHT22;4746;35.664;139.738;2022-10-16T05:55:13;25.90;99.90
9414;DHT22;4746;35.664;139.738;2022-10-16T05:57:41;25.80;99.90
9414;DHT22;4746;35.664;139.738;2022-10-16T06:00:09;25.70;99.90
9414;DHT22;4746;35.664;139.738;2022-10-16T06:02:37;25.60;99.90
9414;DHT22;4746;35.664;139.738;2022-10-16T06:05:05;25.40;99.90
9414;DHT22;4746;35.664;139.738;2022-10-16T06:07:35;25.40;99.90
9414;DHT22;4746;35.664;139.738;2022-10-16T06:10:03;25.30;99.90
9414;DHT22;4746;35.664;139.738;2022-10-16T06:12:31;25.20;99.90
9414;DHT22;4746;35.664;139.738;2022-10-16T06:14:59;25.10;99.90
9414;DHT22;4746;35.664;139.738;2022-10-16T06:17:26;25.10;99.90
9414;DHT22;4746;35.664;139.738;2022-10-16T06:19:53;25.10;99.90
9414;DHT22;4746;35.664;139.738;2022-10-16T06:22:21;25.10;99.90
9414;DHT22;4746;35.664;139.738;2022-10-16T06:24:48;25.10;99.90
9414;DHT22;4746;35.664;139.738;2022-10-16T06:27:16;25.10;99.90
9414;DHT22;4746;35.664;139.738;2022-10-16T06:29:43;25.20;99.90
9414;DHT22;4746;35.664;139.738;2022-10-16T06:32:12;25.30;99.90
9414;DHT22;4746;35.664;139.738;2022-10-16T06:34:39;25.40;99.90
9414;DHT22;4746;35.664;139.738;2022-10-16T06:37:07;25.70;99.90
9414;DHT22;4746;35.664;139.738;2022-10-16T06:39:34;25.80;99.90
9414;DHT22;4746;35.664;139.738;2022-10-16T06:42:02;25.90;99.90
9414;DHT22;4746;35.664;139.738;2022-10-16T06:44:29;25.90;99.90
9414;DHT22;4746;35.664;139.738;2022-10-16T06:46:57;25.90;99.90
9414;DHT22;4746;35.664;139.738;2022-10-16T06:49:24;25.90;99.90
9414;DHT22;4746;35.664;139.738;2022-10-16T06:51:52;25.90;99.90
9414;DHT22;4746;35.664;139.738;2022-10-16T06:54:19;25.90;99.90
9414;DHT22;4746;35.664;139.738;2022-10-16T06:56:47;25.80;99.90
9414;DHT22;4746;35.664;139.738;2022-10-16T06:59:16;25.70;99.90
9414;DHT22;4746;35.664;139.738;2022-10-16T07:01:44;25.70;99.90
9414;DHT22;4746;35.664;139.738;2022-10-16T07:04:13;25.60;99.90
9414;DHT22;4746;35.664;139.738;2022-10-16T07:06:41;25.50;99.90
9414;DHT22;4746;35.664;139.738;2022-10-16T07:09:10;25.40;99.90
9414;DHT22;4746;35.664;139.738;2022-10-16T07:11:39;25.30;99.90
9414;DHT22;4746;35.664;139.738;2022-10-16T07:14:16;25.20;99.90
9414;DHT22;4746;35.664;139.738;2022-10-16T07:16:44;25.10;99.90
9414;DHT22;4746;35.664;139.738;2022-10-16T07:19:13;25.00;99.90
9414;DHT22;4746;35.664;139.738;2022-10-16T07:21:43;25.00;99.90
9414;DHT22;4746;35.664;139.738;2022-10-16T07:24:15;24.90;99.90
9414;DHT22;4746;35.664;139.738;2022-10-16T07:26:44;24.80;99.90
9414;DHT22;4746;35.664;139.738;2022-10-16T07:29:18;24.80;99.90
9414;DHT22;4746;35.664;139.738;2022-10-16T07:31:48;24.70;99.90
9414;DHT22;4746;35.664;139.738;2022-10-16T07:34:17;24.70;99.90
9414;DHT22;4746;35.664;139.738;2022-10-16T07:36:51;24.80;99.90
9414;DHT22;4746;35.664;139.738;2022-10-16T07:39:18;24.80;99.90
9414;DHT22;4746;35.664;139.738;2022-10-16T07:41:46;24.80;99.90
9414;DHT22;4746;35.664;139.738;2022-10-16T07:44:15;24.70;99.90
9414;DHT22;4746;35.664;139.738;2022-10-16T07:46:42;24.80;99.90
9414;DHT22;4746;35.664;139.738;2022-10-16T07:49:10;24.80;99.90
9414;DHT22;4746;35.664;139.738;2022-10-16T07:51:38;24.80;99.90
9414;DHT22;4746;35.664;139.738;2022-10-16T07:54:05;24.70;99.90
9414;DHT22;4746;35.664;139.738;2022-10-16T07:56:34;24.60;99.90
9414;DHT22;4746;35.664;139.738;2022-10-16T07:59:02;24.50;99.90
9414;DHT22;4746;35.664;139.738;2022-10-16T08:01:29;24.40;99.90
9414;DHT22;4746;35.664;139.738;2022-10-16T08:03:57;24.30;99.90
9414;DHT22;4746;35.664;139.738;2022-10-16T08:06:24;24.20;99.90
9414;DHT22;4746;35.664;139.738;2022-10-16T08:08:52;24.10;99.90
9414;DHT22;4746;35.664;139.738;2022-10-16T08:11:20;24.00;99.90
9414;DHT22;4746;35.664;139.738;2022-10-16T08:13:48;23.90;99.90
9414;DHT22;4746;35.664;139.738;2022-10-16T08:16:18;23.90;99.90
9414;DHT22;4746;35.664;139.738;2022-10-16T08:18:46;23.70;99.90
9414;DHT22;4746;35.664;139.738;2022-10-16T08:21:20;23.70;99.90
9414;DHT22;4746;35.664;139.738;2022-10-16T08:23:50;23.60;99.90
9414;DHT22;4746;35.664;139.738;2022-10-16T08:26:19;23.50;99.90
9414;DHT22;4746;35.664;139.738;2022-10-16T08:28:50;23.40;99.90
9414;DHT22;4746;35.664;139.738;2022-10-16T08:31:18;23.40;99.90
9414;DHT22;4746;35.664;139.738;2022-10-16T08:33:45;23.30;99.90
9414;DHT22;4746;35.664;139.738;2022-10-16T08:36:14;23.30;99.90
9414;DHT22;4746;35.664;139.738;2022-10-16T08:38:42;23.20;99.90
9414;DHT22;4746;35.664;139.738;2022-10-16T08:44:39;23.10;99.90
9414;DHT22;4746;35.664;139.738;2022-10-16T08:48:14;23.10;99.90
9414;DHT22;4746;35.664;139.738;2022-10-16T08:50:32;23.00;99.90
9414;DHT22;4746;35.664;139.738;2022-10-16T08:53:05;23.00;99.90
9414;DHT22;4746;35.664;139.738;2022-10-16T08:55:50;23.00;99.90
9414;DHT22;4746;35.664;139.738;2022-10-16T08:58:23;22.90;99.90
9414;DHT22;4746;35.664;139.738;2022-10-16T09:01:00;22.90;99.90
9414;DHT22;4746;35.664;139.738;2022-10-16T09:03:48;22.90;99.90
9414;DHT22;4746;35.664;139.738;2022-10-16T09:06:47;22.80;99.90
9414;DHT22;4746;35.664;139.738;2022-10-16T09:09:45;22.80;99.90
9414;DHT22;4746;35.664;139.738;2022-10-16T09:12:36;22.70;99.90
9414;DHT22;4746;35.664;139.738;2022-10-16T09:15:44;22.80;99.90
9414;DHT22;4746;35.664;139.738;2022-10-16T09:18:37;22.70;99.90
9414;DHT22;4746;35.664;139.738;2022-10-16T09:21:26;22.70;99.90
9414;DHT22;4746;35.664;139.738;2022-10-16T09:24:07;22.70;99.90
9414;DHT22;4746;35.664;139.738;2022-10-16T09:26:45;22.60;99.90
9414;DHT22;4746;35.664;139.738;2022-10-16T09:29:15;22.60;99.90
9414;DHT22;4746;35.664;139.738;2022-10-16T09:31:46;22.60;99.90
9414;DHT22;4746;35.664;139.738;2022-10-16T09:34:27;22.60;99.90
9414;DHT22;4746;35.664;139.738;2022-10-16T09:37:05;22.60;99.90
9414;DHT22;4746;35.664;139.738;2022-10-16T09:39:50;22.60;99.90
9414;DHT22;4746;35.664;139.738;2022-10-16T09:42:29;22.50;99.90
9414;DHT22;4746;35.664;139.738;2022-10-16T09:44:59;22.50;99.90
9414;DHT22;4746;35.664;139.738;2022-10-16T09:47:29;22.50;99.90
9414;DHT22;4746;35.664;139.738;2022-10-16T09:50:18;22.50;99.90
9414;DHT22;4746;35.664;139.738;2022-10-16T09:52:50;22.50;99.90
9414;DHT22;4746;35.664;139.738;2022-10-16T09:55:18;22.50;99.90
9414;DHT22;4746;35.664;139.738;2022-10-16T09:57:53;22.50;99.90
9414;DHT22;4746;35.664;139.738;2022-10-16T10:00:23;22.50;99.90
9414;DHT22;4746;35.664;139.738;2022-10-16T10:02:53;22.50;99.90
9414;DHT22;4746;35.664;139.738;2022-10-16T10:05:27;22.40;99.90
9414;DHT22;4746;35.664;139.738;2022-10-16T10:08:01;22.40;99.90
9414;DHT22;4746;35.664;139.738;2022-10-16T10:10:42;22.40;99.90
9414;DHT22;4746;35.664;139.738;2022-10-16T10:13:22;22.40;99.90
9414;DHT22;4746;35.664;139.738;2022-10-16T10:15:53;22.50;99.90
9414;DHT22;4746;35.664;139.738;2022-10-16T10:18:22;22.50;99.90
9414;DHT22;4746;35.664;139.738;2022-10-16T10:21:01;22.50;99.90
9414;DHT22;4746;35.664;139.738;2022-10-16T10:23:32;22.50;99.90
9414;DHT22;4746;35.664;139.738;2022-10-16T10:26:20;22.50;99.90
9414;DHT22;4746;35.664;139.738;2022-10-16T10:31:47;22.40;99.90
9414;DHT22;4746;35.664;139.738;2022-10-16T10:45:47;22.40;99.90
9414;DHT22;4746;35.664;139.738;2022-10-16T10:48:52;22.40;99.90
9414;DHT22;4746;35.664;139.738;2022-10-16T10:54:37;22.40;99.90
9414;DHT22;4746;35.664;139.738;2022-10-16T10:57:30;22.40;99.90
9414;DHT22;4746;35.664;139.738;2022-10-16T11:09:51;22.30;99.90
9414;DHT22;4746;35.664;139.738;2022-10-16T11:12:52;22.30;99.90
9414;DHT22;4746;35.664;139.738;2022-10-16T11:15:38;22.30;99.90
9414;DHT22;4746;35.664;139.738;2022-10-16T11:18:22;22.30;99.90
9414;DHT22;4746;35.664;139.738;2022-10-16T11:21:14;22.30;99.90
9414;DHT22;4746;35.664;139.738;2022-10-16T11:24:18;22.30;99.90
9414;DHT22;4746;35.664;139.738;2022-10-16T11:26:52;22.40;99.90
9414;DHT22;4746;35.664;139.738;2022-10-16T11:29:29;22.40;99.90
9414;DHT22;4746;35.664;139.738;2022-10-16T11:35:55;22.40;99.90
9414;DHT22;4746;35.664;139.738;2022-10-16T11:42:03;22.40;99.90
9414;DHT22;4746;35.664;139.738;2022-10-16T11:45:24;22.40;99.90
9414;DHT22;4746;35.664;139.738;2022-10-16T11:53:53;22.40;99.90
9414;DHT22;4746;35.664;139.738;2022-10-16T11:56:44;22.40;99.90
9414;DHT22;4746;35.664;139.738;2022-10-16T12:05:06;22.40;99.90
9414;DHT22;4746;35.664;139.738;2022-10-16T12:08:09;22.40;99.90
9414;DHT22;4746;35.664;139.738;2022-10-16T12:10:44;22.40;99.90
9414;DHT22;4746;35.664;139.738;2022-10-16T12:13:33;22.40;99.90
9414;DHT22;4746;35.664;139.738;2022-10-16T12:18:48;22.40;99.90
9414;DHT22;4746;35.664;139.738;2022-10-16T12:21:31;22.40;99.90
9414;DHT22;4746;35.664;139.738;2022-10-16T12:24:01;22.40;99.90
9414;DHT22;4746;35.664;139.738;2022-10-16T12:26:37;22.40;99.90
9414;DHT22;4746;35.664;139.738;2022-10-16T12:32:27;22.40;99.90
9414;DHT22;4746;35.664;139.738;2022-10-16T12:35:03;22.40;99.90
9414;DHT22;4746;35.664;139.738;2022-10-16T12:37:43;22.40;99.90
9414;DHT22;4746;35.664;139.738;2022-10-16T12:40:24;22.40;99.90
9414;DHT22;4746;35.664;139.738;2022-10-16T12:42:55;22.40;99.90
9414;DHT22;4746;35.664;139.738;2022-10-16T12:45:33;22.40;99.90
9414;DHT22;4746;35.664;139.738;2022-10-16T12:48:02;22.40;99.90
9414;DHT22;4746;35.664;139.738;2022-10-16T12:50:45;22.40;99.90
9414;DHT22;4746;35.664;139.738;2022-10-16T12:53:22;22.40;99.90
9414;DHT22;4746;35.664;139.738;2022-10-16T12:56:20;22.40;99.90
9414;DHT22;4746;35.664;139.738;2022-10-16T13:07:41;22.30;99.90
9414;DHT22;4746;35.664;139.738;2022-10-16T13:22:44;22.30;99.90
9414;DHT22;4746;35.664;139.738;2022-10-16T13:25:38;22.20;99.90
9414;DHT22;4746;35.664;139.738;2022-10-16T13:28:09;22.20;99.90
9414;DHT22;4746;35.664;139.738;2022-10-16T13:30:43;22.20;99.90
9414;DHT22;4746;35.664;139.738;2022-10-16T13:33:37;22.20;99.90
9414;DHT22;4746;35.664;139.738;2022-10-16T13:36:22;22.30;99.90
9414;DHT22;4746;35.664;139.738;2022-10-16T13:39:25;22.30;99.90
9414;DHT22;4746;35.664;139.738;2022-10-16T13:42:12;22.30;99.90
9414;DHT22;4746;35.664;139.738;2022-10-16T13:44:50;22.30;99.90
9414;DHT22;4746;35.664;139.738;2022-10-16T13:47:24;22.30;99.90
9414;DHT22;4746;35.664;139.738;2022-10-16T13:50:19;22.30;99.90
9414;DHT22;4746;35.664;139.738;2022-10-16T13:52:47;22.30;99.90
9414;DHT22;4746;35.664;139.738;2022-10-16T13:55:17;22.30;99.90
9414;DHT22;4746;35.664;139.738;2022-10-16T13:57:45;22.30;99.90
9414;DHT22;4746;35.664;139.738;2022-10-16T14:00:25;22.30;99.90
9414;DHT22;4746;35.664;139.738;2022-10-16T14:03:13;22.30;99.90
9414;DHT22;4746;35.664;139.738;2022-10-16T14:05:51;22.30;99.90
9414;DHT22;4746;35.664;139.738;2022-10-16T14:08:23;22.30;99.90
9414;DHT22;4746;35.664;139.738;2022-10-16T14:10:55;22.30;99.90
9414;DHT22;4746;35.664;139.738;2022-10-16T14:16:09;22.30;99.90
9414;DHT22;4746;35.664;139.738;2022-10-16T14:18:49;22.30;99.90
9414;DHT22;4746;35.664;139.738;2022-10-16T14:21:23;22.30;99.90
9414;DHT22;4746;35.664;139.738;2022-10-16T14:23:50;22.30;99.90
9414;DHT22;4746;35.664;139.738;2022-10-16T14:26:20;22.30;99.90
9414;DHT22;4746;35.664;139.738;2022-10-16T14:29:19;22.30;99.90
9414;DHT22;4746;35.664;139.738;2022-10-16T14:32:00;22.30;99.90
9414;DHT22;4746;35.664;139.738;2022-10-16T14:34:39;22.30;99.90
9414;DHT22;4746;35.664;139.738;2022-10-16T14:37:28;22.30;99.90
9414;DHT22;4746;35.664;139.738;2022-10-16T14:39:57;22.30;99.90
9414;DHT22;4746;35.664;139.738;2022-10-16T14:42:26;22.30;99.90
9414;DHT22;4746;35.664;139.738;2022-10-16T14:44:54;22.30;99.90
9414;DHT22;4746;35.664;139.738;2022-10-16T14:47:24;22.30;99.90
9414;DHT22;4746;35.664;139.738;2022-10-16T14:49:54;22.30;99.90
9414;DHT22;4746;35.664;139.738;2022-10-16T14:52:24;22.30;99.90
9414;DHT22;4746;35.664;139.738;2022-10-16T14:54:52;22.30;99.90
9414;DHT22;4746;35.664;139.738;2022-10-16T14:57:24;22.30;99.90
9414;DHT22;4746;35.664;139.738;2022-10-16T14:59:57;22.30;99.90
9414;DHT22;4746;35.664;139.738;2022-10-16T15:02:34;22.30;99.90
9414;DHT22;4746;35.664;139.738;2022-10-16T15:05:20;22.30;99.90
9414;DHT22;4746;35.664;139.738;2022-10-16T15:07:50;22.30;99.90
9414;DHT22;4746;35.664;139.738;2022-10-16T15:10:20;22.20;99.90
9414;DHT22;4746;35.664;139.738;2022-10-16T15:12:50;22.20;99.90
9414;DHT22;4746;35.664;139.738;2022-10-16T15:15:37;22.20;99.90
9414;DHT22;4746;35.664;139.738;2022-10-16T15:18:08;22.20;99.90
9414;DHT22;4746;35.664;139.738;2022-10-16T15:20:37;22.20;99.90
9414;DHT22;4746;35.664;139.738;2022-10-16T15:23:27;22.20;99.90
9414;DHT22;4746;35.664;139.738;2022-10-16T15:25:56;22.20;99.90
9414;DHT22;4746;35.664;139.738;2022-10-16T15:28:24;22.20;99.90
9414;DHT22;4746;35.664;139.738;2022-10-16T15:30:55;22.10;99.90
9414;DHT22;4746;35.664;139.738;2022-10-16T15:33:26;22.20;99.90
9414;DHT22;4746;35.664;139.738;2022-10-16T15:35:59;22.20;99.90
9414;DHT22;4746;35.664;139.738;2022-10-16T15:38:28;22.20;99.90
9414;DHT22;4746;35.664;139.738;2022-10-16T15:40:56;22.20;99.90
9414;DHT22;4746;35.664;139.738;2022-10-16T15:43:24;22.20;99.90
9414;DHT22;4746;35.664;139.738;2022-10-16T15:46:03;22.20;99.90
9414;DHT22;4746;35.664;139.738;2022-10-16T15:48:33;22.20;99.90
9414;DHT22;4746;35.664;139.738;2022-10-16T15:51:05;22.20;99.90
9414;DHT22;4746;35.664;139.738;2022-10-16T15:53:34;22.20;99.90
9414;DHT22;4746;35.664;139.738;2022-10-16T15:56:06;22.20;99.90
9414;DHT22;4746;35.664;139.738;2022-10-16T15:58:35;22.20;99.90
9414;DHT22;4746;35.664;139.738;2022-10-16T16:01:03;22.20;99.90
9414;DHT22;4746;35.664;139.738;2022-10-16T16:03:32;22.20;99.90
9414;DHT22;4746;35.664;139.738;2022-10-16T16:06:05;22.20;99.90
9414;DHT22;4746;35.664;139.738;2022-10-16T16:08:34;22.20;99.90
9414;DHT22;4746;35.664;139.738;2022-10-16T16:11:05;22.20;99.90
9414;DHT22;4746;35.664;139.738;2022-10-16T16:13:34;22.20;99.90
9414;DHT22;4746;35.664;139.738;2022-10-16T16:16:14;22.20;99.90
9414;DHT22;4746;35.664;139.738;2022-10-16T16:18:43;22.20;99.90
9414;DHT22;4746;35.664;139.738;2022-10-16T16:21:12;22.20;99.90
9414;DHT22;4746;35.664;139.738;2022-10-16T16:23:40;22.20;99.90
9414;DHT22;4746;35.664;139.738;2022-10-16T16:26:43;22.20;99.90
9414;DHT22;4746;35.664;139.738;2022-10-16T16:29:06;22.20;99.90
9414;DHT22;4746;35.664;139.738;2022-10-16T16:31:34;22.20;99.90
9414;DHT22;4746;35.664;139.738;2022-10-16T16:34:01;22.20;99.90
9414;DHT22;4746;35.664;139.738;2022-10-16T16:36:29;22.20;99.90
9414;DHT22;4746;35.664;139.738;2022-10-16T16:38:59;22.20;99.90
9414;DHT22;4746;35.664;139.738;2022-10-16T16:41:28;22.20;99.90
9414;DHT22;4746;35.664;139.738;2022-10-16T16:44:03;22.20;99.90
9414;DHT22;4746;35.664;139.738;2022-10-16T16:46:34;22.20;99.90
9414;DHT22;4746;35.664;139.738;2022-10-16T16:49:02;22.20;99.90
9414;DHT22;4746;35.664;139.738;2022-10-16T16:51:30;22.20;99.90
9414;DHT22;4746;35.664;139.738;2022-10-16T16:53:58;22.20;99.90
9414;DHT22;4746;35.664;139.738;2022-10-16T16:56:26;22.20;99.90
9414;DHT22;4746;35.664;139.738;2022-10-16T16:58:55;22.20;99.90
9414;DHT22;4746;35.664;139.738;2022-10-16T17:01:26;22.20;99.90
9414;DHT22;4746;35.664;139.738;2022-10-16T17:03:55;22.20;99.90
9414;DHT22;4746;35.664;139.738;2022-10-16T17:06:26;22.20;99.90
9414;DHT22;4746;35.664;139.738;2022-10-16T17:08:58;22.20;99.90
9414;DHT22;4746;35.664;139.738;2022-10-16T17:11:29;22.20;99.90
9414;DHT22;4746;35.664;139.738;2022-10-16T17:13:58;22.20;99.90
9414;DHT22;4746;35.664;139.738;2022-10-16T17:16:34;22.10;99.90
9414;DHT22;4746;35.664;139.738;2022-10-16T17:19:06;22.10;99.90
9414;DHT22;4746;35.664;139.738;2022-10-16T17:21:35;22.10;99.90
9414;DHT22;4746;35.664;139.738;2022-10-16T17:24:03;22.10;99.90
9414;DHT22;4746;35.664;139.738;2022-10-16T17:26:32;22.10;99.90
9414;DHT22;4746;35.664;139.738;2022-10-16T17:29:03;22.10;99.90
9414;DHT22;4746;35.664;139.738;2022-10-16T17:31:33;22.10;99.90
9414;DHT22;4746;35.664;139.738;2022-10-16T17:34:05;22.20;99.90
9414;DHT22;4746;35.664;139.738;2022-10-16T17:36:35;22.20;99.90
9414;DHT22;4746;35.664;139.738;2022-10-16T17:39:06;22.10;99.90
9414;DHT22;4746;35.664;139.738;2022-10-16T17:41:35;22.20;99.90
9414;DHT22;4746;35.664;139.738;2022-10-16T17:44:04;22.20;99.90
9414;DHT22;4746;35.664;139.738;2022-10-16T17:46:33;22.20;99.90